createdAt,value
2019-06-15T05:51:57.141Z,99.90
2019-06-15T05:54:23.197Z,99.90
2019-06-15T05:56:49.223Z,99.90
2019-06-15T05:59:15.264Z,99.90
2019-06-15T06:01:41.357Z,99.90
2019-06-15T06:04:07.405Z,99.90
2019-06-15T06:06:33.488Z,99.90
2019-06-15T06:08:59.527Z,99.90
2019-06-15T06:11:25.589Z,99.90
2019-06-15T06:13:51.699Z,99.90
2019-06-15T06:16:17.751Z,99.90
2019-06-15T06:18:43.808Z,99.90
2019-06-15T06:21:09.850Z,99.90
2019-06-15T06:23:35.896Z,99.90
2019-06-15T06:26:01.992Z,99.90
2019-06-15T06:28:28.054Z,99.60
2019-06-15T06:30:54.096Z,99.80
2019-06-15T06:33:20.151Z,99.30
2019-06-15T06:35:46.196Z,99.40
2019-06-15T06:38:12.349Z,98.90
2019-06-15T06:40:38.383Z,99.10
2019-06-15T06:43:04.475Z,98.80
2019-06-15T06:45:30.643Z,98.30
2019-06-15T06:47:56.785Z,98.70
2019-06-15T06:50:22.967Z,98.60
2019-06-15T06:52:49.013Z,98.20
2019-06-15T06:55:15.249Z,98.30
2019-06-15T06:57:51.777Z,98.70
2019-06-15T07:00:10.398Z,98.50
2019-06-15T07:02:36.462Z,98.80
2019-06-15T07:05:05.417Z,98.20
2019-06-15T07:07:31.473Z,98.20
2019-06-15T07:09:57.484Z,98.10
2019-06-15T07:12:23.541Z,97.60
2019-06-15T07:14:49.611Z,97.50
2019-06-15T07:17:15.769Z,97.10
2019-06-15T07:19:41.799Z,97.20
2019-06-15T07:22:07.871Z,96.20
2019-06-15T07:24:33.946Z,96.30
2019-06-15T07:27:00.061Z,96.50
2019-06-15T07:29:26.214Z,95.80
2019-06-15T07:31:52.268Z,96.10
2019-06-15T07:34:18.400Z,95.70
2019-06-15T07:36:44.461Z,95.90
2019-06-15T07:39:10.533Z,95.60
2019-06-15T07:41:36.555Z,96.70
2019-06-15T07:44:02.930Z,95.20
2019-06-15T07:46:28.956Z,94.90
2019-06-15T07:48:55.000Z,95.80
2019-06-15T07:51:21.059Z,95.30
2019-06-15T07:53:47.109Z,95.90
2019-06-15T07:56:13.257Z,95.10
2019-06-15T07:58:39.357Z,94.40
2019-06-15T08:01:05.401Z,94.50
2019-06-15T08:03:31.445Z,94.50
2019-06-15T08:05:57.525Z,94.20
2019-06-15T08:08:23.579Z,93.80
2019-06-15T08:10:49.639Z,94.40
2019-06-15T08:13:15.675Z,94.20
2019-06-15T08:15:41.740Z,93.90
2019-06-15T08:18:09.701Z,94.50
2019-06-15T08:20:35.733Z,94.20
2019-06-15T08:23:01.769Z,92.30
2019-06-15T08:25:28.021Z,93.30
2019-06-15T08:27:54.145Z,92.80
2019-06-15T08:30:23.975Z,93.00
2019-06-15T08:32:50.043Z,93.20
2019-06-15T08:35:16.082Z,92.70
2019-06-15T08:37:42.223Z,92.80
2019-06-15T08:40:08.656Z,92.70
2019-06-15T08:42:34.679Z,93.00
2019-06-15T08:45:00.725Z,93.40
2019-06-15T08:47:26.772Z,92.70
2019-06-15T08:49:52.852Z,92.70
2019-06-15T08:52:18.922Z,92.60
2019-06-15T08:54:44.991Z,92.10
2019-06-15T08:57:11.028Z,91.50
2019-06-15T08:59:37.084Z,92.00
2019-06-15T09:02:03.280Z,91.60
2019-06-15T09:04:29.338Z,91.40
2019-06-15T09:06:55.405Z,91.10
2019-06-15T09:09:21.545Z,90.90
2019-06-15T09:11:47.599Z,90.50
2019-06-15T09:14:14.060Z,90.40
2019-06-15T09:16:40.175Z,91.00
2019-06-15T09:19:06.229Z,91.70
2019-06-15T09:21:32.347Z,90.40
2019-06-15T09:23:58.405Z,90.50
2019-06-15T09:26:24.466Z,90.40
2019-06-15T09:28:50.508Z,88.90
2019-06-15T09:31:16.546Z,89.50
2019-06-15T09:33:42.597Z,87.70
2019-06-15T09:36:08.657Z,87.40
2019-06-15T09:38:34.709Z,87.90
2019-06-15T09:41:00.828Z,89.50
2019-06-15T09:43:26.879Z,88.70
2019-06-15T09:45:53.026Z,87.80
2019-06-15T09:48:19.079Z,89.60
2019-06-15T09:50:45.100Z,90.20
2019-06-15T09:53:11.238Z,88.90
2019-06-15T09:55:37.313Z,89.40
2019-06-15T09:58:03.443Z,89.80
2019-06-15T10:00:29.493Z,88.10
2019-06-15T10:02:55.539Z,87.90
2019-06-15T10:05:21.615Z,88.30
2019-06-15T10:07:47.733Z,85.00
2019-06-15T10:10:13.973Z,86.00
2019-06-15T10:12:40.008Z,84.50
2019-06-15T10:15:10.015Z,83.70
2019-06-15T10:17:36.065Z,83.50
2019-06-15T10:20:07.499Z,86.30
2019-06-15T10:22:33.591Z,85.50
2019-06-15T10:24:59.619Z,82.40
2019-06-15T10:27:25.667Z,84.10
2019-06-15T10:29:51.701Z,81.00
2019-06-15T10:32:17.753Z,80.60
2019-06-15T10:34:43.783Z,80.80
2019-06-15T10:37:09.838Z,80.50
2019-06-15T10:39:35.920Z,79.90
2019-06-15T10:42:02.072Z,79.20
2019-06-15T10:44:28.154Z,77.00
2019-06-15T10:46:54.173Z,77.00
2019-06-15T10:49:20.337Z,78.20
2019-06-15T10:51:46.428Z,76.90
2019-06-15T10:54:12.844Z,78.20
2019-06-15T10:56:38.888Z,78.80
2019-06-15T10:59:04.923Z,75.80
2019-06-15T11:01:31.036Z,76.50
2019-06-15T11:03:57.116Z,74.90
2019-06-15T11:06:23.315Z,74.10
2019-06-15T11:08:49.395Z,74.40
2019-06-15T11:11:21.496Z,75.80
2019-06-15T11:13:47.267Z,78.10
2019-06-15T11:16:13.353Z,78.50
2019-06-15T11:18:40.855Z,75.70
2019-06-15T11:21:06.914Z,77.20
2019-06-15T11:23:33.013Z,77.40
2019-06-15T11:25:59.060Z,75.20
2019-06-15T11:28:25.118Z,76.30
2019-06-15T11:30:51.156Z,74.30
2019-06-15T11:33:17.216Z,74.70
2019-06-15T11:35:43.438Z,72.80
2019-06-15T11:38:09.499Z,73.40
2019-06-15T11:40:35.576Z,71.80
2019-06-15T11:43:01.765Z,72.90
2019-06-15T11:45:27.856Z,73.20
2019-06-15T11:47:53.946Z,71.50
2019-06-15T11:50:20.208Z,70.40
2019-06-15T11:52:46.228Z,71.10
2019-06-15T11:55:12.438Z,71.10
2019-06-15T11:57:38.484Z,71.90
2019-06-15T12:00:04.969Z,72.90
2019-06-15T12:02:31.022Z,74.90
2019-06-15T12:04:58.640Z,72.80
2019-06-15T12:07:24.945Z,72.00
2019-06-15T12:09:51.100Z,73.40
2019-06-15T12:12:17.147Z,72.80
2019-06-15T12:14:45.105Z,74.20
2019-06-15T12:17:11.139Z,74.50
2019-06-15T12:19:37.204Z,74.10
2019-06-15T12:22:03.360Z,74.10
2019-06-15T12:24:29.414Z,75.20
2019-06-15T12:26:55.600Z,73.40
2019-06-15T12:29:21.657Z,73.80
2019-06-15T12:31:47.688Z,73.30
2019-06-15T12:34:13.729Z,74.40
2019-06-15T12:36:39.795Z,73.80
2019-06-15T12:39:05.971Z,73.20
2019-06-15T12:41:32.056Z,72.50
2019-06-15T12:43:58.129Z,73.60
2019-06-15T12:46:24.241Z,72.90
2019-06-15T12:48:50.297Z,73.70
2019-06-15T12:51:16.425Z,72.50
2019-06-15T12:53:42.632Z,73.40
2019-06-15T12:56:08.687Z,73.00
2019-06-15T12:58:34.777Z,73.00
2019-06-15T13:01:03.373Z,72.50
2019-06-15T13:03:28.799Z,72.90
2019-06-15T13:05:54.946Z,74.90
2019-06-15T13:08:20.989Z,72.40
2019-06-15T13:10:47.025Z,73.60
2019-06-15T13:13:13.119Z,72.40
2019-06-15T13:15:39.309Z,71.40
2019-06-15T13:18:05.395Z,70.60
2019-06-15T13:20:34.690Z,70.30
2019-06-15T13:23:00.722Z,69.80
2019-06-15T13:25:26.988Z,71.30
2019-06-15T13:27:53.031Z,71.30
2019-06-15T13:30:20.879Z,70.40
2019-06-15T13:32:47.018Z,70.60
2019-06-15T13:35:13.048Z,73.70
2019-06-15T13:37:42.338Z,71.70
2019-06-15T13:40:07.445Z,71.40
2019-06-15T13:42:36.193Z,70.30
2019-06-15T13:45:04.177Z,68.90
2019-06-15T13:47:30.225Z,68.90
2019-06-15T13:49:56.261Z,68.10
2019-06-15T13:52:22.383Z,69.20
2019-06-15T13:54:48.447Z,68.80
2019-06-15T13:57:14.485Z,68.90
2019-06-15T13:59:40.558Z,67.60
2019-06-15T14:02:06.667Z,68.80
2019-06-15T14:04:32.712Z,67.30
2019-06-15T14:06:58.820Z,66.50
2019-06-15T14:09:24.989Z,66.40
2019-06-15T14:11:51.038Z,67.00
2019-06-15T14:14:17.181Z,68.00
2019-06-15T14:16:43.295Z,68.20
2019-06-15T14:19:10.504Z,67.30
2019-06-15T14:21:36.561Z,67.50
2019-06-15T14:24:02.607Z,68.60
2019-06-15T14:26:28.658Z,68.70
2019-06-15T14:28:54.731Z,68.60
2019-06-15T14:31:22.715Z,67.50
2019-06-15T14:33:48.790Z,68.30
2019-06-15T14:36:14.938Z,69.10
2019-06-15T14:38:40.978Z,67.00
2019-06-15T14:41:07.036Z,68.10
2019-06-15T14:43:33.245Z,68.40
2019-06-15T14:46:00.067Z,68.40
2019-06-15T14:48:26.266Z,67.50
2019-06-15T14:50:52.427Z,68.40
2019-06-15T14:53:18.508Z,69.20
2019-06-15T14:55:45.943Z,69.30
2019-06-15T14:58:13.716Z,68.40
2019-06-15T15:00:41.312Z,68.10
2019-06-15T15:03:08.877Z,68.10
2019-06-15T15:05:36.617Z,69.20
2019-06-15T15:08:02.851Z,68.80
2019-06-15T15:10:29.037Z,69.00
2019-06-15T15:12:56.722Z,66.90
2019-06-15T15:15:23.053Z,67.90
2019-06-15T15:17:49.195Z,67.50
2019-06-15T15:20:17.376Z,67.50
2019-06-15T15:22:46.390Z,67.30
2019-06-15T15:25:12.732Z,68.30
2019-06-15T15:27:38.838Z,67.80
2019-06-15T15:30:08.245Z,67.90
2019-06-15T15:32:36.800Z,67.70
2019-06-15T15:35:06.454Z,68.50
2019-06-15T15:37:32.081Z,64.50
2019-06-15T15:39:58.135Z,66.30
2019-06-15T15:42:26.667Z,66.10
2019-06-15T15:44:52.537Z,66.80
2019-06-15T15:47:18.592Z,66.80
2019-06-15T15:49:47.109Z,65.90
2019-06-15T15:52:12.628Z,65.30
2019-06-15T15:54:38.708Z,64.70
2019-06-15T15:57:06.466Z,65.40
2019-06-15T15:59:32.671Z,65.60
2019-06-15T16:01:58.713Z,65.50
2019-06-15T16:04:26.243Z,65.90
2019-06-15T16:06:52.463Z,65.20
2019-06-15T16:09:18.518Z,65.40
2019-06-15T16:11:46.359Z,65.50
2019-06-15T16:14:12.639Z,66.20
2019-06-15T16:16:38.701Z,66.20
2019-06-15T16:19:06.475Z,66.10
2019-06-15T16:21:32.768Z,66.60
2019-06-15T16:23:58.806Z,67.40
2019-06-15T16:26:27.267Z,67.00
2019-06-15T16:28:53.400Z,67.60
2019-06-15T16:31:25.673Z,67.00
2019-06-15T16:33:47.419Z,66.40
2019-06-15T16:36:13.477Z,66.40
2019-06-15T16:38:39.519Z,66.50
2019-06-15T16:41:05.687Z,67.20
2019-06-15T16:43:32.652Z,66.70
2019-06-15T16:45:58.785Z,67.30
2019-06-15T16:48:26.132Z,67.50
2019-06-15T16:50:52.436Z,66.70
2019-06-15T16:53:18.513Z,66.50
2019-06-15T16:55:46.609Z,66.30
2019-06-15T16:58:12.480Z,66.10
2019-06-15T17:00:38.628Z,66.60
2019-06-15T17:03:19.889Z,67.10
2019-06-15T17:05:36.061Z,66.80
2019-06-15T17:08:01.693Z,67.00
2019-06-15T17:10:36.524Z,67.60
2019-06-15T17:13:02.842Z,67.20
2019-06-15T17:15:28.903Z,67.60
2019-06-15T17:17:56.358Z,67.10
2019-06-15T17:20:26.690Z,68.40
2019-06-15T17:22:52.807Z,67.70
2019-06-15T17:25:18.845Z,68.20
2019-06-15T17:27:46.969Z,67.90
2019-06-15T17:30:17.052Z,68.00
2019-06-15T17:32:42.719Z,67.50
2019-06-15T17:35:10.602Z,67.00
2019-06-15T17:37:40.094Z,67.40
2019-06-15T17:40:09.564Z,67.60
2019-06-15T17:42:37.392Z,67.60
2019-06-15T17:45:06.670Z,68.10
2019-06-15T17:47:32.917Z,68.60
2019-06-15T17:49:58.972Z,68.90
2019-06-15T17:52:26.462Z,69.20
2019-06-15T17:54:52.657Z,69.20
2019-06-15T17:57:18.723Z,69.60
2019-06-15T17:59:46.905Z,69.80
2019-06-15T18:02:12.913Z,69.70
2019-06-15T18:04:38.963Z,69.90
2019-06-15T18:07:05.045Z,69.70
2019-06-15T18:09:31.107Z,70.20
2019-06-15T18:11:57.307Z,70.20
2019-06-15T18:14:23.387Z,70.90
2019-06-15T18:16:49.500Z,70.80
2019-06-15T18:19:17.111Z,70.90
2019-06-15T18:21:43.350Z,71.30
2019-06-15T18:24:09.394Z,71.80
2019-06-15T18:26:36.537Z,72.00
2019-06-15T18:29:02.963Z,72.30
2019-06-15T18:31:30.998Z,72.40
2019-06-15T18:34:08.293Z,72.80
2019-06-15T18:36:26.556Z,73.60
2019-06-15T18:38:52.802Z,74.10
2019-06-15T18:41:18.975Z,73.80
2019-06-15T18:43:45.017Z,73.70
2019-06-15T18:46:11.157Z,74.20
2019-06-15T18:48:37.272Z,74.40
2019-06-15T18:51:03.420Z,75.80
2019-06-15T18:53:29.587Z,76.50
2019-06-15T18:55:56.286Z,76.70
2019-06-15T18:58:22.439Z,76.50
2019-06-15T19:00:48.471Z,76.10
2019-06-15T19:03:16.729Z,76.10
2019-06-15T19:05:42.479Z,76.20
2019-06-15T19:08:08.682Z,76.30
2019-06-15T19:10:35.848Z,76.20
2019-06-15T19:13:02.678Z,76.50
2019-06-15T19:15:29.048Z,77.00
2019-06-15T19:17:55.976Z,77.20
2019-06-15T19:20:22.264Z,77.20
2019-06-15T19:22:48.305Z,76.80
2019-06-15T19:25:16.182Z,77.20
2019-06-15T19:27:42.328Z,77.30
2019-06-15T19:30:08.504Z,76.90
2019-06-15T19:32:36.817Z,77.80
2019-06-15T19:35:04.772Z,78.40
2019-06-15T19:37:33.829Z,79.00
2019-06-15T19:39:58.904Z,79.30
2019-06-15T19:42:25.991Z,79.60
2019-06-15T19:44:52.240Z,80.00
2019-06-15T19:47:18.291Z,80.80
2019-06-15T19:49:46.574Z,80.90
2019-06-15T19:52:12.666Z,81.10
2019-06-15T19:54:38.819Z,81.60
2019-06-15T19:57:06.859Z,82.20
2019-06-15T19:59:32.851Z,82.50
2019-06-15T20:01:58.967Z,83.00
2019-06-15T20:04:26.996Z,83.40
2019-06-15T20:06:52.981Z,85.10
2019-06-15T20:09:19.075Z,85.50
2019-06-15T20:11:46.818Z,86.90
2019-06-15T20:14:13.199Z,87.50
2019-06-15T20:16:39.242Z,87.30
2019-06-15T20:19:06.869Z,87.50
2019-06-15T20:21:33.189Z,88.10
2019-06-15T20:23:59.207Z,88.80
2019-06-15T20:26:26.865Z,88.70
2019-06-15T20:28:53.022Z,89.40
2019-06-15T20:31:19.068Z,89.20
2019-06-15T20:33:46.655Z,89.10
2019-06-15T20:36:12.949Z,88.70
2019-06-15T20:38:38.985Z,90.20
2019-06-15T20:41:07.086Z,90.40
2019-06-15T20:43:33.074Z,90.60
2019-06-15T20:45:59.119Z,90.60
2019-06-15T20:48:26.832Z,91.50
2019-06-15T20:50:53.118Z,91.60
2019-06-15T20:53:19.143Z,91.60
2019-06-15T20:55:46.579Z,91.50
2019-06-15T20:58:13.023Z,91.30
2019-06-15T21:00:39.065Z,91.60
2019-06-15T21:03:06.918Z,91.60
2019-06-15T21:05:38.062Z,91.70
2019-06-15T21:08:01.134Z,91.60
2019-06-15T21:10:27.403Z,91.30
2019-06-15T21:12:53.465Z,91.20
2019-06-15T21:15:23.324Z,91.30
2019-06-15T21:17:49.627Z,91.40
2019-06-15T21:20:16.270Z,91.30
2019-06-15T21:22:42.448Z,91.30
2019-06-15T21:25:09.112Z,91.20
2019-06-15T21:27:36.854Z,91.60
2019-06-15T21:30:06.907Z,92.20
2019-06-15T21:32:33.110Z,92.70
2019-06-15T21:35:02.742Z,93.50
2019-06-15T21:37:36.965Z,93.60
2019-06-15T21:40:07.909Z,94.20
2019-06-15T21:42:38.439Z,95.40
2019-06-15T21:45:08.907Z,95.60
2019-06-15T21:47:40.650Z,96.10
2019-06-15T21:50:12.931Z,96.20
2019-06-15T21:52:39.230Z,97.20
2019-06-15T21:55:07.123Z,97.90
2019-06-15T21:57:33.527Z,99.10
2019-06-15T22:00:00.372Z,99.90
2019-06-15T22:02:26.747Z,99.90
2019-06-15T22:04:52.908Z,99.90
2019-06-15T22:07:19.157Z,99.90
2019-06-15T22:09:46.926Z,99.90
2019-06-15T22:12:13.137Z,99.90
2019-06-15T22:14:39.192Z,99.90
2019-06-15T22:17:06.819Z,99.90
2019-06-15T22:19:33.030Z,99.90
2019-06-15T22:22:02.007Z,99.90
2019-06-15T22:24:28.173Z,99.90
2019-06-15T22:26:59.579Z,99.90
2019-06-15T22:29:27.384Z,99.90
2019-06-15T22:31:56.268Z,99.90
2019-06-15T22:34:22.241Z,99.90
2019-06-15T22:36:50.772Z,99.90
2019-06-15T22:39:17.279Z,99.90
2019-06-15T22:41:43.485Z,99.90
2019-06-15T22:44:11.918Z,99.90
2019-06-15T22:46:51.524Z,99.90
2019-06-15T22:49:19.330Z,99.90
2019-06-15T22:51:45.906Z,99.90
2019-06-15T22:54:12.771Z,99.90
2019-06-15T22:56:41.987Z,99.90
2019-06-15T22:59:08.140Z,99.90
2019-06-15T23:01:42.858Z,99.90
2019-06-15T23:04:09.165Z,99.90
2019-06-15T23:06:40.566Z,99.90
2019-06-15T23:09:07.415Z,99.90
2019-06-15T23:11:35.846Z,99.90
2019-06-15T23:14:01.673Z,99.90
2019-06-15T23:16:29.325Z,99.90
2019-06-15T23:18:57.065Z,99.90
2019-06-15T23:21:23.591Z,99.90
2019-06-15T23:26:42.177Z,99.90
2019-06-15T23:29:16.413Z,99.90
2019-06-15T23:31:46.098Z,99.90
2019-06-15T23:34:16.139Z,99.90
2019-06-15T23:36:56.168Z,99.90
2019-06-15T23:39:13.011Z,99.90
2019-06-15T23:41:43.472Z,99.90
2019-06-15T23:44:16.048Z,99.90
2019-06-15T23:46:46.709Z,99.90
2019-06-15T23:49:31.841Z,99.90
2019-06-15T23:51:58.083Z,99.90
2019-06-15T23:54:29.041Z,99.90
2019-06-15T23:56:56.959Z,99.90
2019-06-15T23:59:26.414Z,99.90
